Terminal Aerodrome Forecast
Issued by NWS Atlanta, GA

Home | Current Version | Previous Version | Text Only | Print | Product List | Glossary On
Versions: 1 2 3 4 5 6 7 8 9 10 11 12 13 14 15 16 17 18 19 20 21 22 23 24 25 26 27 28 29 30 31 32 33 34 35 36 37 38 39 40 41 42
000
FTAK31 PAJN 161100
TAFAHN
TAF
PAHN 161140Z 1612/1712 00000KT 6SM -RA BR SCT009 OVC010
      TEMPO 1612/1615 1SM -RA BR OVC009
     FM161500 00000KT 6SM BR VCSH SCT004 OVC010
     FM161800 13004KT P6SM VCSH SCT010 OVC025
     FM162100 10007KT P6SM SCT020 OVC060
     FM170000 11005KT P6SM BKN060
     FM170500 07004KT P6SM BKN050
      AMD LTD TO CLD VIS AND WIND=

USA.gov is the U.S. government's official web portal to all federal, state and local government web resources and services.